Terminal Aerodrome Forecast
Issued by NWS Cleveland, OH

Home | Current Version | Previous Version | Text Only | Print | Product List | Glossary On
Versions: 1 2 3 4 5 6 7 8 9 10 11 12 13 14 15
382
FTUS41 KCLE 141733
TAFTOL
TAF
KTOL 141733Z 1418/1518 15008KT P6SM SCT080 OVC250
     FM142200 12008KT P6SM FEW025 OVC080
     FM150200 12008KT 5SM -SN SCT015 OVC025
      TEMPO 1506/1510 1 1/2SM -SN BKN006 OVC012
     FM151400 18010KT P6SM BKN015 OVC025=

USA.gov is the U.S. government's official web portal to all federal, state and local government web resources and services.